sensor_id;sensor_type;location;lat;lon;timestamp;P1;durP1;ratioP1;P2;durP2;ratioP2
67049;SDS011;53955;52.442;13.284;2022-11-20T00:02:15;13.20;;;7.17;;
67049;SDS011;53955;52.442;13.284;2022-11-20T00:04:42;12.83;;;8.03;;
67049;SDS011;53955;52.442;13.284;2022-11-20T00:07:09;12.60;;;6.93;;
67049;SDS011;53955;52.442;13.284;2022-11-20T00:09:36;15.13;;;8.33;;
67049;SDS011;53955;52.442;13.284;2022-11-20T00:12:03;13.40;;;8.33;;
67049;SDS011;53955;52.442;13.284;2022-11-20T00:14:30;12.27;;;7.20;;
67049;SDS011;53955;52.442;13.284;2022-11-20T00:16:57;15.07;;;7.87;;
67049;SDS011;53955;52.442;13.284;2022-11-20T00:19:24;15.63;;;7.07;;
67049;SDS011;53955;52.442;13.284;2022-11-20T00:21:50;14.13;;;7.60;;
67049;SDS011;53955;52.442;13.284;2022-11-20T00:24:18;14.57;;;7.40;;
67049;SDS011;53955;52.442;13.284;2022-11-20T00:26:46;12.40;;;7.43;;
67049;SDS011;53955;52.442;13.284;2022-11-20T00:29:13;13.20;;;7.33;;
67049;SDS011;53955;52.442;13.284;2022-11-20T00:31:39;12.40;;;7.57;;
67049;SDS011;53955;52.442;13.284;2022-11-20T00:34:06;15.93;;;7.50;;
67049;SDS011;53955;52.442;13.284;2022-11-20T00:36:33;13.17;;;7.53;;
67049;SDS011;53955;52.442;13.284;2022-11-20T00:39:00;14.53;;;7.77;;
67049;SDS011;53955;52.442;13.284;2022-11-20T00:41:27;15.00;;;7.93;;
67049;SDS011;53955;52.442;13.284;2022-11-20T00:43:56;13.83;;;7.47;;
67049;SDS011;53955;52.442;13.284;2022-11-20T00:46:23;14.87;;;7.73;;
67049;SDS011;53955;52.442;13.284;2022-11-20T00:48:50;14.03;;;8.23;;
67049;SDS011;53955;52.442;13.284;2022-11-20T00:51:18;14.90;;;7.63;;
67049;SDS011;53955;52.442;13.284;2022-11-20T00:53:46;16.77;;;6.13;;
67049;SDS011;53955;52.442;13.284;2022-11-20T00:56:13;17.27;;;8.13;;
67049;SDS011;53955;52.442;13.284;2022-11-20T00:58:42;19.60;;;9.83;;
67049;SDS011;53955;52.442;13.284;2022-11-20T01:01:12;14.10;;;8.30;;
67049;SDS011;53955;52.442;13.284;2022-11-20T01:03:40;14.23;;;8.13;;
67049;SDS011;53955;52.442;13.284;2022-11-20T01:06:09;12.27;;;7.40;;
67049;SDS011;53955;52.442;13.284;2022-11-20T01:08:38;15.17;;;8.70;;
67049;SDS011;53955;52.442;13.284;2022-11-20T01:11:06;15.03;;;8.57;;
67049;SDS011;53955;52.442;13.284;2022-11-20T01:13:35;13.50;;;7.17;;
67049;SDS011;53955;52.442;13.284;2022-11-20T01:16:05;13.93;;;7.87;;
67049;SDS011;53955;52.442;13.284;2022-11-20T01:18:35;14.97;;;7.60;;
67049;SDS011;53955;52.442;13.284;2022-11-20T01:21:03;12.60;;;7.50;;
67049;SDS011;53955;52.442;13.284;2022-11-20T01:23:32;17.93;;;8.83;;
67049;SDS011;53955;52.442;13.284;2022-11-20T01:26:00;14.73;;;7.80;;
67049;SDS011;53955;52.442;13.284;2022-11-20T01:28:28;12.97;;;7.37;;
67049;SDS011;53955;52.442;13.284;2022-11-20T01:30:55;15.43;;;8.57;;
67049;SDS011;53955;52.442;13.284;2022-11-20T01:33:21;13.53;;;8.13;;
67049;SDS011;53955;52.442;13.284;2022-11-20T01:35:49;14.20;;;8.17;;
67049;SDS011;53955;52.442;13.284;2022-11-20T01:38:16;15.20;;;8.07;;
67049;SDS011;53955;52.442;13.284;2022-11-20T01:40:45;14.97;;;7.33;;
67049;SDS011;53955;52.442;13.284;2022-11-20T01:43:12;13.80;;;7.73;;
67049;SDS011;53955;52.442;13.284;2022-11-20T01:45:54;16.43;;;8.70;;
67049;SDS011;53955;52.442;13.284;2022-11-20T01:48:28;15.10;;;8.10;;
67049;SDS011;53955;52.442;13.284;2022-11-20T01:51:01;17.67;;;8.23;;
67049;SDS011;53955;52.442;13.284;2022-11-20T01:53:30;14.80;;;8.83;;
67049;SDS011;53955;52.442;13.284;2022-11-20T01:56:01;14.43;;;8.63;;
67049;SDS011;53955;52.442;13.284;2022-11-20T01:58:32;14.60;;;7.70;;
67049;SDS011;53955;52.442;13.284;2022-11-20T02:01:01;14.47;;;8.37;;
67049;SDS011;53955;52.442;13.284;2022-11-20T02:03:29;14.30;;;7.80;;
67049;SDS011;53955;52.442;13.284;2022-11-20T02:05:57;14.07;;;7.57;;
67049;SDS011;53955;52.442;13.284;2022-11-20T02:08:31;14.07;;;8.10;;
67049;SDS011;53955;52.442;13.284;2022-11-20T02:10:58;14.47;;;8.07;;
67049;SDS011;53955;52.442;13.284;2022-11-20T02:13:25;14.10;;;7.53;;
67049;SDS011;53955;52.442;13.284;2022-11-20T02:16:14;12.23;;;7.70;;
67049;SDS011;53955;52.442;13.284;2022-11-20T02:18:43;17.30;;;8.37;;
67049;SDS011;53955;52.442;13.284;2022-11-20T02:21:15;17.10;;;8.63;;
67049;SDS011;53955;52.442;13.284;2022-11-20T02:23:54;13.63;;;7.63;;
67049;SDS011;53955;52.442;13.284;2022-11-20T02:26:26;13.17;;;8.07;;
67049;SDS011;53955;52.442;13.284;2022-11-20T02:28:54;13.37;;;7.77;;
67049;SDS011;53955;52.442;13.284;2022-11-20T02:31:21;13.13;;;8.23;;
67049;SDS011;53955;52.442;13.284;2022-11-20T02:33:47;16.73;;;8.40;;
67049;SDS011;53955;52.442;13.284;2022-11-20T02:36:19;15.00;;;8.27;;
67049;SDS011;53955;52.442;13.284;2022-11-20T02:38:46;16.90;;;8.27;;
67049;SDS011;53955;52.442;13.284;2022-11-20T02:41:14;12.67;;;8.03;;
67049;SDS011;53955;52.442;13.284;2022-11-20T02:43:41;14.17;;;7.43;;
67049;SDS011;53955;52.442;13.284;2022-11-20T02:46:07;15.53;;;8.57;;
67049;SDS011;53955;52.442;13.284;2022-11-20T02:48:34;15.60;;;8.60;;
67049;SDS011;53955;52.442;13.284;2022-11-20T02:51:01;15.10;;;8.47;;
67049;SDS011;53955;52.442;13.284;2022-11-20T02:53:27;14.43;;;7.30;;
67049;SDS011;53955;52.442;13.284;2022-11-20T02:55:54;15.10;;;8.03;;
67049;SDS011;53955;52.442;13.284;2022-11-20T02:58:22;13.63;;;7.70;;
67049;SDS011;53955;52.442;13.284;2022-11-20T03:00:49;15.97;;;8.27;;
67049;SDS011;53955;52.442;13.284;2022-11-20T03:03:15;14.87;;;8.47;;
67049;SDS011;53955;52.442;13.284;2022-11-20T03:05:42;16.70;;;8.80;;
67049;SDS011;53955;52.442;13.284;2022-11-20T03:08:08;15.67;;;7.83;;
67049;SDS011;53955;52.442;13.284;2022-11-20T03:10:35;19.00;;;9.27;;
67049;SDS011;53955;52.442;13.284;2022-11-20T03:13:01;16.60;;;8.63;;
67049;SDS011;53955;52.442;13.284;2022-11-20T03:15:29;14.20;;;8.23;;
67049;SDS011;53955;52.442;13.284;2022-11-20T03:17:56;15.73;;;8.07;;
67049;SDS011;53955;52.442;13.284;2022-11-20T03:20:22;17.13;;;8.27;;
67049;SDS011;53955;52.442;13.284;2022-11-20T03:22:49;14.10;;;8.37;;
67049;SDS011;53955;52.442;13.284;2022-11-20T03:25:15;14.43;;;7.97;;
67049;SDS011;53955;52.442;13.284;2022-11-20T03:27:42;13.93;;;8.33;;
67049;SDS011;53955;52.442;13.284;2022-11-20T03:30:09;14.67;;;7.83;;
67049;SDS011;53955;52.442;13.284;2022-11-20T03:32:37;15.40;;;8.40;;
67049;SDS011;53955;52.442;13.284;2022-11-20T03:35:04;15.90;;;8.47;;
67049;SDS011;53955;52.442;13.284;2022-11-20T03:37:31;16.57;;;7.90;;
67049;SDS011;53955;52.442;13.284;2022-11-20T03:39:58;16.17;;;8.60;;
67049;SDS011;53955;52.442;13.284;2022-11-20T03:42:24;14.00;;;8.17;;
67049;SDS011;53955;52.442;13.284;2022-11-20T03:45:09;15.33;;;8.90;;
67049;SDS011;53955;52.442;13.284;2022-11-20T03:47:35;16.33;;;8.90;;
67049;SDS011;53955;52.442;13.284;2022-11-20T03:50:04;16.13;;;9.20;;
67049;SDS011;53955;52.442;13.284;2022-11-20T03:52:30;14.63;;;8.10;;
67049;SDS011;53955;52.442;13.284;2022-11-20T03:54:57;15.40;;;8.07;;
67049;SDS011;53955;52.442;13.284;2022-11-20T03:57:24;16.80;;;8.50;;
67049;SDS011;53955;52.442;13.284;2022-11-20T03:59:50;15.93;;;8.97;;
67049;SDS011;53955;52.442;13.284;2022-11-20T04:02:17;15.00;;;8.83;;
67049;SDS011;53955;52.442;13.284;2022-11-20T04:04:44;17.50;;;9.07;;
67049;SDS011;53955;52.442;13.284;2022-11-20T04:07:11;14.17;;;7.80;;
67049;SDS011;53955;52.442;13.284;2022-11-20T04:09:37;16.27;;;8.67;;
67049;SDS011;53955;52.442;13.284;2022-11-20T04:12:04;15.23;;;8.87;;
67049;SDS011;53955;52.442;13.284;2022-11-20T04:14:31;13.53;;;8.30;;
67049;SDS011;53955;52.442;13.284;2022-11-20T04:16:57;16.07;;;8.97;;
67049;SDS011;53955;52.442;13.284;2022-11-20T04:19:24;17.43;;;9.20;;
67049;SDS011;53955;52.442;13.284;2022-11-20T04:21:52;15.07;;;8.60;;
67049;SDS011;53955;52.442;13.284;2022-11-20T04:24:18;20.20;;;8.30;;
67049;SDS011;53955;52.442;13.284;2022-11-20T04:26:45;15.77;;;8.80;;
67049;SDS011;53955;52.442;13.284;2022-11-20T04:29:12;17.13;;;8.33;;
67049;SDS011;53955;52.442;13.284;2022-11-20T04:31:39;16.30;;;8.27;;
67049;SDS011;53955;52.442;13.284;2022-11-20T04:34:06;15.73;;;9.60;;
67049;SDS011;53955;52.442;13.284;2022-11-20T04:36:33;16.93;;;8.80;;
67049;SDS011;53955;52.442;13.284;2022-11-20T04:39:02;18.87;;;9.30;;
67049;SDS011;53955;52.442;13.284;2022-11-20T04:41:30;16.13;;;9.23;;
67049;SDS011;53955;52.442;13.284;2022-11-20T04:43:58;14.17;;;8.10;;
67049;SDS011;53955;52.442;13.284;2022-11-20T04:46:28;21.00;;;8.70;;
67049;SDS011;53955;52.442;13.284;2022-11-20T04:48:55;14.73;;;8.53;;
67049;SDS011;53955;52.442;13.284;2022-11-20T04:51:22;15.63;;;8.87;;
67049;SDS011;53955;52.442;13.284;2022-11-20T04:53:49;16.00;;;8.93;;
67049;SDS011;53955;52.442;13.284;2022-11-20T04:56:17;16.23;;;8.73;;
67049;SDS011;53955;52.442;13.284;2022-11-20T04:58:43;15.77;;;9.07;;
67049;SDS011;53955;52.442;13.284;2022-11-20T05:01:11;14.93;;;8.07;;
67049;SDS011;53955;52.442;13.284;2022-11-20T05:03:38;16.63;;;8.73;;
67049;SDS011;53955;52.442;13.284;2022-11-20T05:06:05;18.07;;;8.73;;
67049;SDS011;53955;52.442;13.284;2022-11-20T05:08:33;15.17;;;8.37;;
67049;SDS011;53955;52.442;13.284;2022-11-20T05:11:00;19.00;;;9.47;;
67049;SDS011;53955;52.442;13.284;2022-11-20T05:13:29;19.80;;;9.30;;
67049;SDS011;53955;52.442;13.284;2022-11-20T05:15:55;15.30;;;9.27;;
67049;SDS011;53955;52.442;13.284;2022-11-20T05:18:27;15.23;;;8.30;;
67049;SDS011;53955;52.442;13.284;2022-11-20T05:20:54;17.10;;;9.10;;
67049;SDS011;53955;52.442;13.284;2022-11-20T05:23:22;19.07;;;9.50;;
67049;SDS011;53955;52.442;13.284;2022-11-20T05:25:51;17.43;;;9.70;;
67049;SDS011;53955;52.442;13.284;2022-11-20T05:28:18;17.20;;;9.03;;
67049;SDS011;53955;52.442;13.284;2022-11-20T05:30:45;17.17;;;9.10;;
67049;SDS011;53955;52.442;13.284;2022-11-20T05:33:12;15.10;;;8.30;;
67049;SDS011;53955;52.442;13.284;2022-11-20T05:35:39;16.70;;;8.77;;
67049;SDS011;53955;52.442;13.284;2022-11-20T05:38:05;18.50;;;9.13;;
67049;SDS011;53955;52.442;13.284;2022-11-20T05:40:32;15.67;;;8.70;;
67049;SDS011;53955;52.442;13.284;2022-11-20T05:42:59;14.93;;;8.53;;
67049;SDS011;53955;52.442;13.284;2022-11-20T05:45:26;16.13;;;8.77;;
67049;SDS011;53955;52.442;13.284;2022-11-20T05:47:57;15.30;;;8.60;;
67049;SDS011;53955;52.442;13.284;2022-11-20T05:50:24;18.63;;;9.87;;
67049;SDS011;53955;52.442;13.284;2022-11-20T05:52:51;16.23;;;8.77;;
67049;SDS011;53955;52.442;13.284;2022-11-20T05:55:18;13.97;;;8.37;;
67049;SDS011;53955;52.442;13.284;2022-11-20T05:57:44;15.23;;;8.90;;
67049;SDS011;53955;52.442;13.284;2022-11-20T06:00:11;15.63;;;9.40;;
67049;SDS011;53955;52.442;13.284;2022-11-20T06:02:39;18.57;;;10.03;;
67049;SDS011;53955;52.442;13.284;2022-11-20T06:05:07;15.00;;;9.03;;
67049;SDS011;53955;52.442;13.284;2022-11-20T06:07:34;20.33;;;10.10;;
67049;SDS011;53955;52.442;13.284;2022-11-20T06:10:00;19.87;;;9.23;;
67049;SDS011;53955;52.442;13.284;2022-11-20T06:12:27;15.83;;;9.33;;
67049;SDS011;53955;52.442;13.284;2022-11-20T06:14:54;17.63;;;9.30;;
67049;SDS011;53955;52.442;13.284;2022-11-20T06:17:20;18.50;;;9.60;;
67049;SDS011;53955;52.442;13.284;2022-11-20T06:19:47;16.13;;;9.20;;
67049;SDS011;53955;52.442;13.284;2022-11-20T06:22:14;15.33;;;9.00;;
67049;SDS011;53955;52.442;13.284;2022-11-20T06:24:41;16.87;;;9.30;;
67049;SDS011;53955;52.442;13.284;2022-11-20T06:27:08;16.63;;;8.70;;
67049;SDS011;53955;52.442;13.284;2022-11-20T06:29:34;18.07;;;9.17;;
67049;SDS011;53955;52.442;13.284;2022-11-20T06:32:01;17.27;;;9.77;;
67049;SDS011;53955;52.442;13.284;2022-11-20T06:34:27;17.17;;;9.63;;
67049;SDS011;53955;52.442;13.284;2022-11-20T06:36:54;17.13;;;9.83;;
67049;SDS011;53955;52.442;13.284;2022-11-20T06:39:22;16.73;;;9.00;;
67049;SDS011;53955;52.442;13.284;2022-11-20T06:41:48;17.13;;;8.87;;
67049;SDS011;53955;52.442;13.284;2022-11-20T06:44:15;17.23;;;9.83;;
67049;SDS011;53955;52.442;13.284;2022-11-20T06:46:41;16.90;;;8.50;;
67049;SDS011;53955;52.442;13.284;2022-11-20T06:49:08;18.17;;;9.07;;
67049;SDS011;53955;52.442;13.284;2022-11-20T06:51:34;16.00;;;9.80;;
67049;SDS011;53955;52.442;13.284;2022-11-20T06:54:01;17.37;;;9.30;;
67049;SDS011;53955;52.442;13.284;2022-11-20T06:56:29;15.67;;;9.27;;
67049;SDS011;53955;52.442;13.284;2022-11-20T06:58:56;18.13;;;10.40;;
67049;SDS011;53955;52.442;13.284;2022-11-20T07:01:22;19.40;;;9.67;;
67049;SDS011;53955;52.442;13.284;2022-11-20T07:03:49;15.87;;;8.73;;
67049;SDS011;53955;52.442;13.284;2022-11-20T07:06:16;18.33;;;9.37;;
67049;SDS011;53955;52.442;13.284;2022-11-20T07:08:42;14.80;;;8.93;;
67049;SDS011;53955;52.442;13.284;2022-11-20T07:11:11;15.60;;;9.40;;
67049;SDS011;53955;52.442;13.284;2022-11-20T07:13:39;18.63;;;9.77;;
67049;SDS011;53955;52.442;13.284;2022-11-20T07:16:07;16.73;;;9.77;;
67049;SDS011;53955;52.442;13.284;2022-11-20T07:18:34;22.40;;;11.00;;
67049;SDS011;53955;52.442;13.284;2022-11-20T07:21:01;19.60;;;10.60;;
67049;SDS011;53955;52.442;13.284;2022-11-20T07:23:28;16.43;;;9.33;;
67049;SDS011;53955;52.442;13.284;2022-11-20T07:25:55;25.43;;;10.43;;
67049;SDS011;53955;52.442;13.284;2022-11-20T07:28:21;19.23;;;9.67;;
67049;SDS011;53955;52.442;13.284;2022-11-20T07:30:52;18.33;;;9.67;;
67049;SDS011;53955;52.442;13.284;2022-11-20T07:33:19;19.90;;;9.83;;
67049;SDS011;53955;52.442;13.284;2022-11-20T07:35:46;17.90;;;9.57;;
67049;SDS011;53955;52.442;13.284;2022-11-20T07:38:12;24.47;;;10.27;;
67049;SDS011;53955;52.442;13.284;2022-11-20T07:40:39;27.10;;;10.13;;
67049;SDS011;53955;52.442;13.284;2022-11-20T07:43:06;21.80;;;9.57;;
67049;SDS011;53955;52.442;13.284;2022-11-20T07:45:32;18.50;;;9.27;;
67049;SDS011;53955;52.442;13.284;2022-11-20T07:48:00;16.73;;;10.00;;
67049;SDS011;53955;52.442;13.284;2022-11-20T07:50:27;19.47;;;10.03;;
67049;SDS011;53955;52.442;13.284;2022-11-20T07:52:59;20.20;;;9.13;;
67049;SDS011;53955;52.442;13.284;2022-11-20T07:55:26;16.93;;;9.30;;
67049;SDS011;53955;52.442;13.284;2022-11-20T07:57:54;19.93;;;9.93;;
67049;SDS011;53955;52.442;13.284;2022-11-20T08:00:20;24.27;;;9.70;;
67049;SDS011;53955;52.442;13.284;2022-11-20T08:02:47;37.07;;;11.53;;
67049;SDS011;53955;52.442;13.284;2022-11-20T08:05:15;23.30;;;10.90;;
67049;SDS011;53955;52.442;13.284;2022-11-20T08:07:42;18.37;;;9.60;;
67049;SDS011;53955;52.442;13.284;2022-11-20T08:10:10;18.83;;;9.80;;
67049;SDS011;53955;52.442;13.284;2022-11-20T08:12:43;19.20;;;10.17;;
67049;SDS011;53955;52.442;13.284;2022-11-20T08:15:28;21.00;;;9.57;;
67049;SDS011;53955;52.442;13.284;2022-11-20T08:17:58;18.90;;;10.50;;
67049;SDS011;53955;52.442;13.284;2022-11-20T08:20:27;18.07;;;9.67;;
67049;SDS011;53955;52.442;13.284;2022-11-20T08:22:57;19.03;;;10.30;;
67049;SDS011;53955;52.442;13.284;2022-11-20T08:25:24;16.27;;;9.37;;
67049;SDS011;53955;52.442;13.284;2022-11-20T08:27:51;22.40;;;9.50;;
67049;SDS011;53955;52.442;13.284;2022-11-20T08:30:17;19.63;;;10.40;;
67049;SDS011;53955;52.442;13.284;2022-11-20T08:32:44;19.53;;;10.10;;
67049;SDS011;53955;52.442;13.284;2022-11-20T08:35:11;18.63;;;10.00;;
67049;SDS011;53955;52.442;13.284;2022-11-20T08:37:38;22.43;;;10.47;;
67049;SDS011;53955;52.442;13.284;2022-11-20T08:40:07;18.63;;;9.60;;
67049;SDS011;53955;52.442;13.284;2022-11-20T08:42:35;19.67;;;9.90;;
67049;SDS011;53955;52.442;13.284;2022-11-20T08:45:01;19.70;;;9.80;;
67049;SDS011;53955;52.442;13.284;2022-11-20T08:47:28;16.13;;;9.47;;
67049;SDS011;53955;52.442;13.284;2022-11-20T08:49:55;19.03;;;9.63;;
67049;SDS011;53955;52.442;13.284;2022-11-20T08:52:21;18.77;;;9.57;;
67049;SDS011;53955;52.442;13.284;2022-11-20T08:54:49;17.93;;;9.63;;
67049;SDS011;53955;52.442;13.284;2022-11-20T08:57:16;16.93;;;9.70;;
67049;SDS011;53955;52.442;13.284;2022-11-20T08:59:42;16.83;;;9.40;;
67049;SDS011;53955;52.442;13.284;2022-11-20T09:02:09;18.40;;;10.17;;
67049;SDS011;53955;52.442;13.284;2022-11-20T09:04:35;17.07;;;10.47;;
67049;SDS011;53955;52.442;13.284;2022-11-20T09:07:02;18.00;;;9.97;;
67049;SDS011;53955;52.442;13.284;2022-11-20T09:09:28;16.93;;;10.03;;
67049;SDS011;53955;52.442;13.284;2022-11-20T09:11:56;18.00;;;9.57;;
67049;SDS011;53955;52.442;13.284;2022-11-20T09:14:23;15.90;;;9.17;;
67049;SDS011;53955;52.442;13.284;2022-11-20T09:16:54;19.07;;;11.03;;
67049;SDS011;53955;52.442;13.284;2022-11-20T09:19:20;20.70;;;10.30;;
67049;SDS011;53955;52.442;13.284;2022-11-20T09:21:47;19.50;;;9.37;;
67049;SDS011;53955;52.442;13.284;2022-11-20T09:24:13;18.57;;;9.87;;
67049;SDS011;53955;52.442;13.284;2022-11-20T09:26:40;18.37;;;9.57;;
67049;SDS011;53955;52.442;13.284;2022-11-20T09:29:08;18.20;;;9.53;;
67049;SDS011;53955;52.442;13.284;2022-11-20T09:31:35;22.33;;;10.70;;
67049;SDS011;53955;52.442;13.284;2022-11-20T09:34:01;19.97;;;10.40;;
67049;SDS011;53955;52.442;13.284;2022-11-20T09:36:28;18.37;;;9.90;;
67049;SDS011;53955;52.442;13.284;2022-11-20T09:38:54;19.20;;;9.93;;
67049;SDS011;53955;52.442;13.284;2022-11-20T09:41:29;17.07;;;9.13;;
67049;SDS011;53955;52.442;13.284;2022-11-20T09:44:14;17.47;;;9.93;;
67049;SDS011;53955;52.442;13.284;2022-11-20T09:46:53;17.03;;;10.13;;
67049;SDS011;53955;52.442;13.284;2022-11-20T09:49:24;19.07;;;9.53;;
67049;SDS011;53955;52.442;13.284;2022-11-20T09:51:59;19.17;;;10.77;;
67049;SDS011;53955;52.442;13.284;2022-11-20T09:54:40;19.97;;;10.37;;
67049;SDS011;53955;52.442;13.284;2022-11-20T09:57:09;17.57;;;9.77;;
67049;SDS011;53955;52.442;13.284;2022-11-20T09:59:39;18.37;;;10.20;;
67049;SDS011;53955;52.442;13.284;2022-11-20T10:02:14;19.20;;;10.13;;
67049;SDS011;53955;52.442;13.284;2022-11-20T10:04:43;18.07;;;9.63;;
67049;SDS011;53955;52.442;13.284;2022-11-20T10:07:15;20.87;;;10.13;;
67049;SDS011;53955;52.442;13.284;2022-11-20T10:09:48;17.50;;;9.83;;
67049;SDS011;53955;52.442;13.284;2022-11-20T10:12:18;20.40;;;9.77;;
67049;SDS011;53955;52.442;13.284;2022-11-20T10:14:58;16.40;;;10.03;;
67049;SDS011;53955;52.442;13.284;2022-11-20T10:17:50;17.70;;;9.63;;
67049;SDS011;53955;52.442;13.284;2022-11-20T10:20:40;17.83;;;9.10;;
67049;SDS011;53955;52.442;13.284;2022-11-20T10:23:20;16.57;;;9.93;;
67049;SDS011;53955;52.442;13.284;2022-11-20T10:26:01;17.03;;;9.63;;
67049;SDS011;53955;52.442;13.284;2022-11-20T10:28:34;16.97;;;10.43;;
67049;SDS011;53955;52.442;13.284;2022-11-20T10:31:14;20.20;;;10.13;;
67049;SDS011;53955;52.442;13.284;2022-11-20T10:33:53;22.83;;;10.60;;
67049;SDS011;53955;52.442;13.284;2022-11-20T10:36:22;16.67;;;8.93;;
67049;SDS011;53955;52.442;13.284;2022-11-20T10:38:53;18.07;;;10.17;;
67049;SDS011;53955;52.442;13.284;2022-11-20T10:41:23;16.80;;;9.57;;
67049;SDS011;53955;52.442;13.284;2022-11-20T10:43:58;19.80;;;9.60;;
67049;SDS011;53955;52.442;13.284;2022-11-20T10:46:32;16.50;;;9.23;;
67049;SDS011;53955;52.442;13.284;2022-11-20T10:49:09;17.30;;;10.23;;
67049;SDS011;53955;52.442;13.284;2022-11-20T10:51:40;17.77;;;10.33;;
67049;SDS011;53955;52.442;13.284;2022-11-20T10:54:17;14.60;;;9.17;;
67049;SDS011;53955;52.442;13.284;2022-11-20T10:56:50;18.30;;;10.20;;
67049;SDS011;53955;52.442;13.284;2022-11-20T10:59:27;19.37;;;9.80;;
67049;SDS011;53955;52.442;13.284;2022-11-20T11:02:19;16.60;;;9.17;;
67049;SDS011;53955;52.442;13.284;2022-11-20T11:04:47;16.47;;;9.90;;
67049;SDS011;53955;52.442;13.284;2022-11-20T11:07:16;17.17;;;9.40;;
67049;SDS011;53955;52.442;13.284;2022-11-20T11:09:47;16.20;;;9.73;;
67049;SDS011;53955;52.442;13.284;2022-11-20T11:12:16;18.77;;;9.43;;
67049;SDS011;53955;52.442;13.284;2022-11-20T11:14:44;16.67;;;9.60;;
67049;SDS011;53955;52.442;13.284;2022-11-20T11:17:24;17.40;;;9.23;;
67049;SDS011;53955;52.442;13.284;2022-11-20T11:19:57;18.30;;;10.10;;
67049;SDS011;53955;52.442;13.284;2022-11-20T11:22:29;15.40;;;9.00;;
67049;SDS011;53955;52.442;13.284;2022-11-20T11:24:57;13.77;;;8.47;;
67049;SDS011;53955;52.442;13.284;2022-11-20T11:27:23;17.07;;;8.67;;
67049;SDS011;53955;52.442;13.284;2022-11-20T11:29:50;15.57;;;9.27;;
67049;SDS011;53955;52.442;13.284;2022-11-20T11:32:30;15.93;;;7.80;;
67049;SDS011;53955;52.442;13.284;2022-11-20T11:35:00;14.83;;;8.87;;
67049;SDS011;53955;52.442;13.284;2022-11-20T11:37:32;16.30;;;8.77;;
67049;SDS011;53955;52.442;13.284;2022-11-20T11:40:01;18.10;;;9.33;;
67049;SDS011;53955;52.442;13.284;2022-11-20T11:42:30;18.57;;;9.77;;
67049;SDS011;53955;52.442;13.284;2022-11-20T11:44:58;17.13;;;9.67;;
67049;SDS011;53955;52.442;13.284;2022-11-20T11:47:36;16.00;;;9.23;;
67049;SDS011;53955;52.442;13.284;2022-11-20T11:50:14;16.53;;;8.23;;
67049;SDS011;53955;52.442;13.284;2022-11-20T11:52:45;13.20;;;7.93;;
67049;SDS011;53955;52.442;13.284;2022-11-20T11:55:24;16.30;;;8.90;;
67049;SDS011;53955;52.442;13.284;2022-11-20T11:57:59;13.33;;;7.73;;
67049;SDS011;53955;52.442;13.284;2022-11-20T12:00:46;15.70;;;8.13;;
67049;SDS011;53955;52.442;13.284;2022-11-20T12:03:20;15.73;;;8.00;;
67049;SDS011;53955;52.442;13.284;2022-11-20T12:05:51;12.40;;;7.77;;
67049;SDS011;53955;52.442;13.284;2022-11-20T12:08:25;14.13;;;7.73;;
67049;SDS011;53955;52.442;13.284;2022-11-20T12:10:57;14.30;;;7.97;;
67049;SDS011;53955;52.442;13.284;2022-11-20T12:13:35;13.70;;;7.90;;
67049;SDS011;53955;52.442;13.284;2022-11-20T12:16:11;12.30;;;6.97;;
67049;SDS011;53955;52.442;13.284;2022-11-20T12:18:42;14.07;;;6.47;;
67049;SDS011;53955;52.442;13.284;2022-11-20T12:21:12;12.73;;;7.37;;
67049;SDS011;53955;52.442;13.284;2022-11-20T12:23:49;10.83;;;6.77;;
67049;SDS011;53955;52.442;13.284;2022-11-20T12:26:31;13.80;;;7.30;;
67049;SDS011;53955;52.442;13.284;2022-11-20T12:29:13;8.10;;;5.07;;
67049;SDS011;53955;52.442;13.284;2022-11-20T12:31:51;9.43;;;5.83;;
67049;SDS011;53955;52.442;13.284;2022-11-20T12:34:37;11.17;;;5.40;;
67049;SDS011;53955;52.442;13.284;2022-11-20T12:37:13;10.27;;;5.43;;
67049;SDS011;53955;52.442;13.284;2022-11-20T12:39:50;10.13;;;6.07;;
67049;SDS011;53955;52.442;13.284;2022-11-20T12:42:33;8.50;;;5.57;;
67049;SDS011;53955;52.442;13.284;2022-11-20T12:45:48;13.97;;;5.90;;
67049;SDS011;53955;52.442;13.284;2022-11-20T12:48:36;10.03;;;5.47;;
67049;SDS011;53955;52.442;13.284;2022-11-20T12:51:17;13.07;;;5.57;;
67049;SDS011;53955;52.442;13.284;2022-11-20T12:53:55;11.93;;;5.63;;
67049;SDS011;53955;52.442;13.284;2022-11-20T12:56:35;9.97;;;5.90;;
67049;SDS011;53955;52.442;13.284;2022-11-20T12:59:14;10.53;;;6.30;;
67049;SDS011;53955;52.442;13.284;2022-11-20T13:01:53;10.57;;;5.47;;
67049;SDS011;53955;52.442;13.284;2022-11-20T13:04:28;8.13;;;5.17;;
67049;SDS011;53955;52.442;13.284;2022-11-20T13:07:12;10.10;;;5.87;;
67049;SDS011;53955;52.442;13.284;2022-11-20T13:09:42;12.10;;;6.57;;
67049;SDS011;53955;52.442;13.284;2022-11-20T13:12:13;9.40;;;5.57;;
67049;SDS011;53955;52.442;13.284;2022-11-20T13:14:44;10.43;;;6.00;;
67049;SDS011;53955;52.442;13.284;2022-11-20T13:17:17;10.10;;;6.10;;
67049;SDS011;53955;52.442;13.284;2022-11-20T13:19:49;11.53;;;6.40;;
67049;SDS011;53955;52.442;13.284;2022-11-20T13:22:25;10.53;;;5.50;;
67049;SDS011;53955;52.442;13.284;2022-11-20T13:24:52;10.93;;;5.30;;
67049;SDS011;53955;52.442;13.284;2022-11-20T13:27:20;10.30;;;5.40;;
67049;SDS011;53955;52.442;13.284;2022-11-20T13:29:58;10.77;;;5.47;;
67049;SDS011;53955;52.442;13.284;2022-11-20T13:32:27;12.07;;;6.17;;
67049;SDS011;53955;52.442;13.284;2022-11-20T13:34:57;15.90;;;6.40;;
67049;SDS011;53955;52.442;13.284;2022-11-20T13:37:31;11.30;;;5.80;;
67049;SDS011;53955;52.442;13.284;2022-11-20T13:40:13;9.97;;;5.33;;
67049;SDS011;53955;52.442;13.284;2022-11-20T13:42:51;9.77;;;5.80;;
67049;SDS011;53955;52.442;13.284;2022-11-20T13:45:22;9.57;;;4.90;;
67049;SDS011;53955;52.442;13.284;2022-11-20T13:47:52;9.70;;;5.93;;
67049;SDS011;53955;52.442;13.284;2022-11-20T13:50:21;10.50;;;5.57;;
67049;SDS011;53955;52.442;13.284;2022-11-20T13:53:07;10.10;;;5.13;;
67049;SDS011;53955;52.442;13.284;2022-11-20T13:55:49;9.37;;;5.57;;
67049;SDS011;53955;52.442;13.284;2022-11-20T13:58:24;10.73;;;5.83;;
67049;SDS011;53955;52.442;13.284;2022-11-20T14:00:57;10.27;;;5.47;;
67049;SDS011;53955;52.442;13.284;2022-11-20T14:03:28;11.23;;;5.40;;
67049;SDS011;53955;52.442;13.284;2022-11-20T14:05:59;8.73;;;5.80;;
67049;SDS011;53955;52.442;13.284;2022-11-20T14:08:31;9.17;;;5.50;;
67049;SDS011;53955;52.442;13.284;2022-11-20T14:11:04;9.70;;;5.37;;
67049;SDS011;53955;52.442;13.284;2022-11-20T14:13:32;9.87;;;5.40;;
67049;SDS011;53955;52.442;13.284;2022-11-20T14:15:59;8.10;;;5.03;;
67049;SDS011;53955;52.442;13.284;2022-11-20T14:18:26;10.97;;;5.70;;
67049;SDS011;53955;52.442;13.284;2022-11-20T14:20:53;10.27;;;5.13;;
67049;SDS011;53955;52.442;13.284;2022-11-20T14:23:23;10.73;;;5.17;;
67049;SDS011;53955;52.442;13.284;2022-11-20T14:25:53;9.93;;;5.40;;
67049;SDS011;53955;52.442;13.284;2022-11-20T14:28:23;9.13;;;4.97;;
67049;SDS011;53955;52.442;13.284;2022-11-20T14:30:52;9.20;;;5.33;;
67049;SDS011;53955;52.442;13.284;2022-11-20T14:33:20;8.97;;;5.10;;
67049;SDS011;53955;52.442;13.284;2022-11-20T14:35:50;8.83;;;5.33;;
67049;SDS011;53955;52.442;13.284;2022-11-20T14:38:19;7.83;;;5.07;;